Time;durP1;ratioP1;P1;durP2;ratioP2;P2;SDS_P1;SDS_P2;PMS_P1;PMS_P2;Temp;Humidity;BMP_temperature;BMP_pressure;BME280_temperature;BME280_humidity;BME280_pressure;Samples;Min_cycle;Max_cycle;Signal;HPM_P1;HPM_P2
2021/11/13 00:01:25;;;;;;;40.45;19.23;;;;;;;5.53;71.96;99022.75;5091216;28;20115;-53
2021/11/13 00:03:51;;;;;;;29.23;19.30;;;;;;;5.40;72.29;99012.00;5091138;28;20017;-53
2021/11/13 00:06:17;;;;;;;37.55;20.00;;;;;;;5.31;72.26;99003.34;5092443;28;20123;-53
2021/11/13 00:08:43;;;;;;;42.60;21.30;;;;;;;5.24;72.19;99010.16;5092374;28;20578;-53
2021/11/13 00:11:10;;;;;;;37.58;20.33;;;;;;;5.15;72.35;99009.31;5092288;28;20024;-53
2021/11/13 00:13:37;;;;;;;36.17;22.73;;;;;;;5.09;72.67;99012.53;5092295;28;20035;-52
2021/11/13 00:16:04;;;;;;;30.60;20.17;;;;;;;5.04;73.16;99008.78;5092308;28;20107;-53
2021/11/13 00:18:34;;;;;;;45.65;23.05;;;;;;;5.04;73.25;99014.78;5092260;28;20088;-53
2021/11/13 00:21:01;;;;;;;35.85;21.75;;;;;;;5.14;73.16;99012.06;5092540;28;20035;-53
2021/11/13 00:23:27;;;;;;;38.75;23.15;;;;;;;5.16;72.75;99012.72;5090534;28;20394;-53
2021/11/13 00:25:52;;;;;;;40.05;23.50;;;;;;;5.18;73.34;99003.78;5092134;28;20023;-53
2021/11/13 00:28:18;;;;;;;48.35;23.88;;;;;;;5.19;72.90;98999.38;5092143;28;20035;-53
2021/11/13 00:30:44;;;;;;;56.72;24.98;;;;;;;5.20;72.66;99003.63;5092056;28;20016;-53
2021/11/13 00:33:10;;;;;;;39.72;21.23;;;;;;;5.30;73.72;98993.09;5092072;28;20386;-53
2021/11/13 00:35:36;;;;;;;29.77;18.05;;;;;;;5.27;72.18;98985.59;5092010;28;20390;-52
2021/11/13 00:38:02;;;;;;;43.65;20.20;;;;;;;5.14;72.80;98981.66;5091940;28;20024;-53
2021/11/13 00:40:28;;;;;;;42.17;20.42;;;;;;;5.05;72.51;98981.78;5091972;28;20398;-51
2021/11/13 00:42:53;;;;;;;58.88;35.10;;;;;;;4.99;73.05;98984.06;5091815;28;20026;-51
2021/11/13 00:45:19;;;;;;;58.72;34.22;;;;;;;4.94;73.18;98983.69;5091811;28;20020;-51
2021/11/13 00:47:45;;;;;;;68.40;23.85;;;;;;;4.98;73.64;98985.00;5091366;28;20028;-51
2021/11/13 00:50:13;;;;;;;39.40;24.63;;;;;;;5.06;73.75;98970.41;5091794;28;20028;-51
2021/11/13 00:52:40;;;;;;;37.20;22.10;;;;;;;5.12;73.26;98977.59;5091824;28;20031;-51
2021/11/13 00:55:08;;;;;;;30.23;19.77;;;;;;;5.18;73.59;98961.34;5091796;28;20454;-53
2021/11/13 00:57:34;;;;;;;37.58;23.90;;;;;;;5.26;73.15;98958.75;5091820;28;20020;-53
2021/11/13 00:59:59;;;;;;;30.17;20.65;;;;;;;5.35;73.17;98957.81;5091783;28;20439;-52
2021/11/13 01:02:25;;;;;;;76.43;25.73;;;;;;;5.42;72.12;98959.78;5090418;28;20028;-53
2021/11/13 01:04:51;;;;;;;74.10;24.30;;;;;;;5.30;72.45;98956.66;5091644;28;20099;-53
2021/11/13 01:07:17;;;;;;;37.95;22.63;;;;;;;5.40;73.28;98954.72;5091648;28;20107;-52
2021/11/13 01:09:42;;;;;;;46.92;29.52;;;;;;;5.54;72.62;98950.69;5091662;28;20394;-53
2021/11/13 01:12:08;;;;;;;71.15;24.02;;;;;;;5.39;71.18;98953.91;5090387;28;20021;-53
2021/11/13 01:14:40;;;;;;;153.43;31.00;;;;;;;5.12;72.83;98951.56;5091591;28;20080;-53
2021/11/13 01:17:12;;;;;;;70.95;24.33;;;;;;;5.00;73.31;98953.66;5091978;28;20040;-53
2021/11/13 01:19:41;;;;;;;98.18;27.38;;;;;;;4.75;73.54;98937.16;5091548;28;20023;-53
2021/11/13 01:22:07;;;;;;;71.63;27.20;;;;;;;4.67;73.99;98945.72;5091309;28;20518;-53
2021/11/13 01:24:33;;;;;;;48.63;24.35;;;;;;;4.48;75.22;98938.97;5091510;28;20020;-53
2021/11/13 01:26:59;;;;;;;42.03;18.85;;;;;;;4.74;75.65;98932.91;5091492;28;20582;-54
2021/11/13 01:29:25;;;;;;;59.97;27.10;;;;;;;5.04;74.57;98926.34;5091514;28;20076;-53
2021/11/13 01:31:51;;;;;;;56.10;25.95;;;;;;;5.03;73.18;98931.72;5091441;28;20674;-53
2021/11/13 01:34:17;;;;;;;34.20;22.38;;;;;;;4.96;74.47;98921.13;5091456;28;20039;-53
2021/11/13 01:36:43;;;;;;;56.30;23.70;;;;;;;5.02;73.32;98919.69;5091385;28;20019;-53
2021/11/13 01:39:08;;;;;;;97.90;27.35;;;;;;;4.90;73.48;98917.38;5091428;28;20056;-52
2021/11/13 01:41:35;;;;;;;35.58;21.90;;;;;;;4.79;74.31;98926.28;5091306;28;20026;-53
2021/11/13 01:44:01;;;;;;;34.05;20.15;;;;;;;4.83;73.36;98919.00;5091279;28;20031;-53
2021/11/13 01:46:27;;;;;;;31.08;19.70;;;;;;;4.78;72.87;98921.22;5091308;28;20021;-52
2021/11/13 01:48:53;;;;;;;29.75;25.02;;;;;;;4.59;72.87;98915.31;5091339;28;20017;-52
2021/11/13 01:51:25;;;;;;;26.55;23.80;;;;;;;4.39;73.06;98904.34;5091295;28;20025;-52
2021/11/13 01:53:53;;;;;;;25.02;17.98;;;;;;;4.27;73.78;98899.59;5091244;28;20517;-51
2021/11/13 01:56:20;;;;;;;20.25;17.02;;;;;;;4.23;73.80;98908.66;5089908;28;20016;-52
2021/11/13 01:58:48;;;;;;;21.65;15.27;;;;;;;4.28;74.43;98912.38;5092176;28;20490;-52
2021/11/13 02:01:14;;;;;;;19.40;15.05;;;;;;;4.56;74.49;98915.63;5094881;28;20032;-52
2021/11/13 02:03:40;;;;;;;23.50;14.68;;;;;;;4.79;74.17;98912.47;5093375;28;20070;-52
2021/11/13 02:06:06;;;;;;;20.00;17.17;;;;;;;4.94;71.99;98910.06;5094725;28;20027;-52
2021/11/13 02:08:32;;;;;;;21.42;15.05;;;;;;;4.95;71.19;98917.72;5093397;28;20111;-52
2021/11/13 02:10:58;;;;;;;18.23;14.27;;;;;;;4.85;71.95;98917.03;5094651;28;20099;-52
2021/11/13 02:13:23;;;;;;;20.85;15.02;;;;;;;4.91;71.68;98902.56;5093225;28;20028;-53
2021/11/13 02:15:49;;;;;;;16.75;14.93;;;;;;;5.08;71.00;98893.03;5094598;28;20518;-53
2021/11/13 02:18:15;;;;;;;24.25;15.25;;;;;;;4.89;70.71;98888.91;5094514;28;20035;-52
2021/11/13 02:20:43;;;;;;;21.42;18.73;;;;;;;4.60;70.89;98893.53;5093124;28;20397;-52
2021/11/13 02:23:16;;;;;;;18.92;15.93;;;;;;;4.34;71.18;98877.19;5094113;28;20039;-52
2021/11/13 02:25:43;;;;;;;19.75;17.65;;;;;;;4.09;72.34;98879.66;5094336;28;20036;-52
2021/11/13 02:28:11;;;;;;;20.50;14.45;;;;;;;3.88;72.95;98879.22;5094384;28;20047;-52
2021/11/13 02:30:38;;;;;;;18.30;13.57;;;;;;;3.87;73.73;98869.81;5094233;28;20016;-51
2021/11/13 02:33:04;;;;;;;23.23;19.00;;;;;;;4.20;73.77;98856.03;5094257;28;20077;-52
2021/11/13 02:35:31;;;;;;;17.63;14.30;;;;;;;4.30;71.47;98855.91;5094191;28;20024;-52
2021/11/13 02:38:08;;;;;;;18.73;14.38;;;;;;;4.26;71.83;98858.97;5094165;28;20027;-52
2021/11/13 02:40:33;;;;;;;18.67;12.07;;;;;;;4.46;72.89;98868.16;5092795;28;20035;-52
2021/11/13 02:43:00;;;;;;;14.30;10.93;;;;;;;4.96;71.90;98861.31;5093999;28;20016;-52
2021/11/13 02:45:27;;;;;;;14.50;10.52;;;;;;;5.33;71.52;98850.47;5093894;28;20039;-53
2021/11/13 02:47:54;;;;;;;14.00;11.73;;;;;;;5.46;70.35;98859.56;5093961;28;20024;-52
2021/11/13 02:50:20;;;;;;;17.45;10.95;;;;;;;5.67;69.61;98857.25;5093881;28;20027;-53
2021/11/13 02:52:52;;;;;;;14.73;10.38;;;;;;;5.64;68.45;98862.00;5092554;28;20161;-52
2021/11/13 02:55:19;;;;;;;22.88;11.80;;;;;;;5.60;69.37;98857.13;5092468;28;20024;-53
2021/11/13 02:57:45;;;;;;;16.77;10.48;;;;;;;5.78;68.51;98867.34;5093752;28;20095;-53
2021/11/13 03:00:13;;;;;;;16.65;9.95;;;;;;;5.67;68.97;98870.28;5093659;28;20099;-52
2021/11/13 03:02:40;;;;;;;13.18;10.07;;;;;;;5.84;69.26;98868.50;5093650;28;20428;-53
2021/11/13 03:05:25;;;;;;;13.98;11.00;;;;;;;5.95;68.05;98867.34;5093543;28;20039;-52
2021/11/13 03:07:53;;;;;;;16.15;11.32;;;;;;;5.68;67.07;98856.31;5093644;28;20398;-52
2021/11/13 03:10:19;;;;;;;15.88;11.70;;;;;;;5.10;68.53;98865.06;5093017;28;20031;-52
2021/11/13 03:12:46;;;;;;;16.30;13.80;;;;;;;4.64;68.60;98862.03;5093465;28;20028;-53
2021/11/13 03:15:15;;;;;;;16.13;14.32;;;;;;;4.12;70.46;98868.16;5093433;28;20019;-52
2021/11/13 03:17:41;;;;;;;14.20;11.93;;;;;;;4.26;71.73;98882.34;5092043;28;20020;-52
2021/11/13 03:20:11;;;;;;;18.23;11.68;;;;;;;4.38;71.21;98883.69;5093243;28;20672;-53
2021/11/13 03:22:38;;;;;;;21.98;14.10;;;;;;;4.49;71.01;98898.22;5093047;28;20505;-52
2021/11/13 03:25:16;;;;;;;23.50;14.82;;;;;;;4.69;70.92;98896.16;5093092;28;20038;-52
2021/11/13 03:27:46;;;;;;;23.08;15.02;;;;;;;4.92;70.78;98901.63;5093209;28;20063;-52
2021/11/13 03:30:13;;;;;;;24.27;15.50;;;;;;;5.12;70.46;98910.75;5093150;28;20077;-51
2021/11/13 03:32:38;;;;;;;54.55;16.83;;;;;;;5.27;70.73;98915.34;5093048;28;20024;-52
2021/11/13 03:35:06;;;;;;;188.52;21.35;;;;;;;5.18;70.28;98923.13;5092987;28;20554;-52
2021/11/13 03:37:32;;;;;;;29.27;14.40;;;;;;;5.16;70.52;98924.28;5092900;28;20024;-52
2021/11/13 03:39:58;;;;;;;78.60;11.77;;;;;;;5.28;70.41;98941.19;5092959;28;20020;-52
2021/11/13 03:42:27;;;;;;;29.27;14.35;;;;;;;5.39;71.05;98937.47;5091587;28;20488;-52
2021/11/13 03:44:53;;;;;;;22.75;14.98;;;;;;;5.53;70.64;98939.47;5092825;28;20019;-53
2021/11/13 03:47:19;;;;;;;28.23;15.45;;;;;;;5.71;70.74;98935.88;5092734;28;20024;-52
2021/11/13 03:49:45;;;;;;;33.47;20.15;;;;;;;5.96;70.75;98931.50;5093033;28;20024;-53
2021/11/13 03:52:10;;;;;;;110.07;17.70;;;;;;;6.02;69.23;98928.25;5092707;28;20111;-51
2021/11/13 03:54:37;;;;;;;122.85;17.88;;;;;;;5.86;68.84;98929.03;5092652;28;20498;-53
2021/11/13 03:57:04;;;;;;;26.23;15.50;;;;;;;5.75;69.94;98926.75;5092533;28;20035;-52
2021/11/13 03:59:30;;;;;;;33.17;15.80;;;;;;;5.76;70.03;98929.22;5092568;28;20031;-52
2021/11/13 04:01:57;;;;;;;41.03;15.32;;;;;;;5.83;69.71;98924.16;5092548;28;20028;-52
2021/11/13 04:04:22;;;;;;;23.67;16.13;;;;;;;5.83;69.28;98925.94;5092396;28;20020;-52
2021/11/13 04:06:48;;;;;;;29.33;16.75;;;;;;;5.84;69.75;98930.19;5091190;28;20030;-53
2021/11/13 04:09:14;;;;;;;38.67;15.02;;;;;;;5.78;68.97;98927.25;5092409;28;20141;-53
2021/11/13 04:11:39;;;;;;;35.60;15.52;;;;;;;5.71;69.64;98935.88;5092417;28;20024;-53
2021/11/13 04:14:05;;;;;;;31.90;15.55;;;;;;;5.64;69.54;98933.13;5092431;28;20020;-52
2021/11/13 04:16:31;;;;;;;85.18;14.43;;;;;;;5.54;68.89;98932.47;5092338;28;20050;-52
2021/11/13 04:18:56;;;;;;;41.05;16.77;;;;;;;5.39;69.63;98937.47;5092306;28;20546;-52
2021/11/13 04:21:22;;;;;;;50.03;16.70;;;;;;;5.36;70.51;98940.41;5091518;28;20020;-52
2021/11/13 04:23:48;;;;;;;40.95;15.32;;;;;;;5.37;69.87;98942.03;5091936;28;20147;-52
2021/11/13 04:26:14;;;;;;;45.50;15.10;;;;;;;5.30;70.41;98941.06;5092167;28;20276;-52
2021/11/13 04:28:40;;;;;;;138.35;16.88;;;;;;;5.19;70.33;98939.53;5092228;28;20103;-52
2021/11/13 04:31:06;;;;;;;33.33;17.00;;;;;;;5.10;70.37;98956.13;5092093;28;20035;-52
2021/11/13 04:33:34;;;;;;;48.03;16.65;;;;;;;5.06;71.14;98953.00;5092099;28;20337;-52
2021/11/13 04:38:28;;;;;;;35.45;16.52;;;;;;;4.97;71.11;98961.75;5092232;28;20039;-52
2021/11/13 04:40:54;;;;;;;56.30;15.82;;;;;;;4.90;71.21;98964.19;5091955;28;20578;-52
2021/11/13 04:43:20;;;;;;;54.22;16.77;;;;;;;4.85;71.40;98976.84;5091771;28;20028;-52
2021/11/13 04:45:46;;;;;;;62.97;27.42;;;;;;;4.77;71.74;98989.81;5091907;28;20111;-52
2021/11/13 04:48:12;;;;;;;96.47;17.10;;;;;;;4.73;71.84;98991.91;5091866;28;20394;-51
2021/11/13 04:50:38;;;;;;;61.05;17.45;;;;;;;4.76;72.10;99001.97;5091846;28;20021;-52
2021/11/13 04:53:04;;;;;;;58.05;15.73;;;;;;;4.96;72.01;98992.16;5090533;28;20028;-52
2021/11/13 04:55:31;;;;;;;70.40;16.85;;;;;;;4.96;71.44;98986.94;5091707;28;20512;-52
2021/11/13 04:57:57;;;;;;;39.20;14.63;;;;;;;4.87;71.55;98984.47;5091812;28;20064;-51
2021/11/13 05:00:27;;;;;;;38.53;15.07;;;;;;;4.75;72.23;99000.38;5091751;28;20495;-52
2021/11/13 05:02:53;;;;;;;36.13;15.50;;;;;;;4.80;72.47;98992.09;5091809;28;20035;-52
2021/11/13 05:05:19;;;;;;;43.55;15.95;;;;;;;4.76;72.17;98993.38;5090267;28;20140;-53
2021/11/13 05:07:45;;;;;;;57.20;19.52;;;;;;;4.70;72.55;98994.00;5091713;28;20099;-52
2021/11/13 05:10:12;;;;;;;26.27;16.60;;;;;;;4.77;71.97;98997.63;5091630;28;20031;-52
2021/11/13 05:12:38;;;;;;;29.27;16.38;;;;;;;4.88;72.80;99002.53;5091665;28;20027;-52
2021/11/13 05:15:05;;;;;;;30.50;17.50;;;;;;;5.12;72.06;99009.63;5090284;28;20514;-52
2021/11/13 05:17:31;;;;;;;28.85;16.23;;;;;;;5.24;71.53;99010.16;5091568;28;20035;-52
2021/11/13 05:19:57;;;;;;;33.80;16.30;;;;;;;5.28;71.53;99008.06;5091604;28;20024;-52
2021/11/13 05:22:23;;;;;;;41.72;16.80;;;;;;;5.35;71.60;99016.84;5091224;28;20036;-52
2021/11/13 05:24:49;;;;;;;30.73;14.88;;;;;;;5.33;70.68;99005.78;5091458;28;20046;-51
2021/11/13 05:27:16;;;;;;;40.53;19.35;;;;;;;5.31;71.03;99012.91;5091497;28;20089;-52
2021/11/13 05:29:41;;;;;;;34.58;15.93;;;;;;;5.23;71.02;99013.72;5091533;28;20393;-52
2021/11/13 05:32:08;;;;;;;29.30;14.43;;;;;;;5.16;70.40;99010.94;5091457;28;20018;-51
2021/11/13 05:34:34;;;;;;;34.00;13.07;;;;;;;4.97;70.59;99004.22;5095368;28;20028;-51
2021/11/13 05:37:00;;;;;;;29.35;14.40;;;;;;;4.76;70.97;98995.97;5094009;28;20016;-51
2021/11/13 05:39:26;;;;;;;34.75;14.63;;;;;;;4.55;71.12;98997.16;5093901;28;20422;-51
2021/11/13 05:41:52;;;;;;;30.88;14.27;;;;;;;4.43;71.57;98997.56;5095248;28;20016;-52
2021/11/13 05:44:18;;;;;;;31.55;15.52;;;;;;;4.39;72.48;98999.69;5095087;28;20071;-51
2021/11/13 05:46:45;;;;;;;19.23;13.07;;;;;;;4.44;72.30;99002.63;5095140;28;20044;-50
2021/11/13 05:49:10;;;;;;;21.00;14.20;;;;;;;4.39;71.71;99002.28;5095317;28;20460;-51
2021/11/13 05:51:36;;;;;;;31.08;14.05;;;;;;;4.30;72.45;98998.78;5094986;28;20107;-51
2021/11/13 05:54:03;;;;;;;24.90;14.45;;;;;;;4.21;71.80;98999.72;5094994;28;20490;-51
2021/11/13 05:56:29;;;;;;;23.15;13.70;;;;;;;4.03;72.69;98991.94;5093595;28;20505;-50
2021/11/13 05:58:54;;;;;;;22.88;16.15;;;;;;;3.96;72.85;98996.09;5094937;28;20020;-50
2021/11/13 06:01:20;;;;;;;24.25;14.55;;;;;;;3.96;73.65;98996.09;5094877;28;20020;-51
2021/11/13 06:03:46;;;;;;;21.05;12.00;;;;;;;4.01;72.18;98983.50;5094797;28;20088;-52
2021/11/13 06:06:11;;;;;;;19.13;11.38;;;;;;;3.90;71.55;98991.50;5094776;28;20103;-51
2021/11/13 06:08:37;;;;;;;19.30;13.38;;;;;;;3.84;71.97;98989.50;5094736;28;20492;-51
2021/11/13 06:11:03;;;;;;;21.40;13.02;;;;;;;3.68;71.61;98991.03;5094699;28;20553;-51
2021/11/13 06:13:28;;;;;;;17.92;12.77;;;;;;;3.60;71.50;98991.75;5093324;28;20080;-49
2021/11/13 06:15:54;;;;;;;211.82;171.80;;;;;;;3.50;72.23;98998.78;5094562;28;20043;-48
2021/11/13 06:18:20;;;;;;;69.68;49.92;;;;;;;3.49;72.93;98997.16;5094786;28;20513;-49
2021/11/13 06:20:58;;;;;;;20.15;14.70;;;;;;;3.58;72.90;98993.69;5094467;28;20035;-49
2021/11/13 06:23:24;;;;;;;35.95;17.13;;;;;;;3.55;73.21;98993.97;5094082;28;20036;-48
2021/11/13 06:25:49;;;;;;;34.63;19.75;;;;;;;3.56;73.90;98998.22;5094420;28;20027;-49
2021/11/13 06:28:15;;;;;;;25.13;13.43;;;;;;;3.66;73.65;98992.09;5094343;28;20486;-49
2021/11/13 06:30:41;;;;;;;20.63;12.77;;;;;;;3.79;73.94;99005.53;5092974;28;20024;-49
2021/11/13 06:33:07;;;;;;;38.72;16.40;;;;;;;3.84;72.95;99010.28;5094283;28;20024;-49
2021/11/13 06:35:32;;;;;;;23.55;16.85;;;;;;;3.84;72.41;99008.50;5092898;28;20371;-48
2021/11/13 06:37:58;;;;;;;19.92;14.48;;;;;;;3.65;72.42;99009.47;5094204;28;20021;-50
2021/11/13 06:40:24;;;;;;;19.83;13.45;;;;;;;3.64;72.64;99009.63;5092767;28;20024;-49
2021/11/13 06:42:49;;;;;;;17.50;12.48;;;;;;;3.70;72.58;99012.44;5094069;28;20024;-50
2021/11/13 06:45:15;;;;;;;27.33;21.27;;;;;;;3.71;72.15;99010.66;5093083;28;20085;-49
2021/11/13 06:47:41;;;;;;;22.90;13.57;;;;;;;3.68;72.01;99016.97;5094013;28;20098;-50
2021/11/13 06:50:09;;;;;;;20.70;14.90;;;;;;;3.61;72.18;99018.53;5093920;28;20052;-50
2021/11/13 06:52:35;;;;;;;15.30;11.07;;;;;;;3.58;71.77;99019.63;5093881;28;20043;-50
2021/11/13 06:55:01;;;;;;;16.92;10.98;;;;;;;3.67;72.13;99015.31;5093809;28;20020;-49
2021/11/13 06:57:27;;;;;;;14.00;9.75;;;;;;;3.80;71.38;99018.38;5092433;28;20039;-49
2021/11/13 06:59:52;;;;;;;13.40;10.45;;;;;;;3.79;70.68;99023.72;5092481;28;20016;-50
2021/11/13 07:02:18;;;;;;;24.27;19.17;;;;;;;3.68;71.20;99032.53;5093964;28;20028;-50
2021/11/13 07:04:44;;;;;;;18.63;14.57;;;;;;;3.53;71.53;99036.59;5092265;28;20019;-50
2021/11/13 07:07:09;;;;;;;21.90;16.15;;;;;;;3.62;72.85;99040.09;5093573;28;20367;-50
2021/11/13 07:09:35;;;;;;;33.97;21.30;;;;;;;3.71;71.68;99027.03;5093603;28;20434;-50
2021/11/13 07:12:01;;;;;;;23.38;17.58;;;;;;;3.89;71.91;99028.84;5092119;28;20123;-49
2021/11/13 07:14:27;;;;;;;14.82;11.77;;;;;;;4.19;72.48;99041.41;5093457;28;20020;-50
2021/11/13 07:16:53;;;;;;;14.60;12.25;;;;;;;4.32;69.13;99033.22;5092132;28;20489;-50
2021/11/13 07:19:18;;;;;;;24.67;17.10;;;;;;;4.01;70.00;99025.03;5093355;28;20012;-49
2021/11/13 07:21:44;;;;;;;23.38;16.35;;;;;;;3.92;71.18;99026.75;5093331;28;20458;-50
2021/11/13 07:24:10;;;;;;;30.95;16.50;;;;;;;4.13;71.24;99028.22;5092948;28;20048;-50
2021/11/13 07:26:37;;;;;;;23.77;16.83;;;;;;;4.70;70.97;99015.59;5093196;28;20030;-50
2021/11/13 07:29:06;;;;;;;15.30;10.85;;;;;;;4.99;67.92;99012.66;5093149;28;20028;-50
2021/11/13 07:31:32;;;;;;;25.88;14.07;;;;;;;4.85;68.85;99008.06;5093163;28;20094;-50
2021/11/13 07:33:58;;;;;;;13.63;10.77;;;;;;;5.02;68.04;99005.53;5093110;28;20099;-50
2021/11/13 07:36:24;;;;;;;14.27;12.23;;;;;;;4.91;67.41;99004.00;5093292;28;20112;-50
2021/11/13 07:38:51;;;;;;;14.25;12.20;;;;;;;4.68;68.28;99011.53;5091649;28;20028;-50
2021/11/13 07:41:18;;;;;;;20.95;11.80;;;;;;;4.80;70.04;99016.31;5092907;28;20067;-50
2021/11/13 07:43:45;;;;;;;20.15;11.52;;;;;;;5.19;70.31;99015.00;5092851;28;20024;-50
2021/11/13 07:46:11;;;;;;;18.20;11.07;;;;;;;5.39;68.93;99011.19;5092778;28;20020;-50
2021/11/13 07:48:37;;;;;;;13.57;10.52;;;;;;;5.45;69.32;99020.13;5091492;28;20111;-51
2021/11/13 07:51:04;;;;;;;15.95;10.68;;;;;;;5.72;69.20;99021.66;5091477;28;20035;-51
2021/11/13 07:53:30;;;;;;;26.13;15.43;;;;;;;6.25;68.40;99031.81;5092738;28;20060;-50
2021/11/13 07:55:57;;;;;;;38.35;34.05;;;;;;;6.50;66.42;99033.41;5092609;28;20016;-51
2021/11/13 07:58:23;;;;;;;12.45;9.27;;;;;;;6.61;65.54;99042.69;5092643;28;20035;-51
2021/11/13 08:00:50;;;;;;;16.52;10.02;;;;;;;6.58;64.91;99040.41;5092596;28;20020;-53
2021/11/13 08:03:17;;;;;;;12.27;9.68;;;;;;;6.67;65.46;99051.63;5091157;28;20115;-53
2021/11/13 08:05:43;;;;;;;14.82;9.13;;;;;;;6.72;64.94;99050.16;5091155;28;20114;-52
2021/11/13 08:08:09;;;;;;;14.85;10.10;;;;;;;6.63;64.68;99053.75;5092481;28;20047;-53
2021/11/13 08:10:41;;;;;;;13.65;8.80;;;;;;;6.62;65.45;99048.69;5092427;28;20509;-53
2021/11/13 08:13:08;;;;;;;10.13;8.23;;;;;;;6.82;64.29;99043.94;5092354;28;20032;-53
2021/11/13 08:15:34;;;;;;;13.85;9.52;;;;;;;6.92;63.99;99057.59;5092357;28;20024;-53
2021/11/13 08:17:59;;;;;;;12.07;9.27;;;;;;;7.22;64.77;99063.84;5092307;28;20027;-53
2021/11/13 08:20:25;;;;;;;10.75;9.45;;;;;;;7.51;63.01;99062.44;5092250;28;20486;-53
2021/11/13 08:22:51;;;;;;;10.75;9.63;;;;;;;7.59;62.57;99067.63;5092014;28;20070;-53
2021/11/13 08:25:20;;;;;;;20.73;10.10;;;;;;;7.83;62.11;99066.66;5091940;28;20040;-53
2021/11/13 08:27:45;;;;;;;12.48;9.80;;;;;;;8.08;62.21;99067.31;5092159;28;20034;-53
2021/11/13 08:30:14;;;;;;;14.13;10.65;;;;;;;8.45;61.55;99073.59;5092147;28;20020;-53
2021/11/13 08:32:40;;;;;;;11.05;9.43;;;;;;;8.79;60.58;99070.50;5092130;28;20044;-53
2021/11/13 08:35:08;;;;;;;687.65;447.20;;;;;;;8.91;59.80;99070.03;5092029;28;20398;-53
2021/11/13 08:37:34;;;;;;;97.63;57.90;;;;;;;9.03;59.46;99067.78;5092071;28;20020;-51
2021/11/13 08:40:00;;;;;;;138.90;110.25;;;;;;;9.05;59.26;99068.41;5090719;28;20016;-53
2021/11/13 08:42:26;;;;;;;90.50;76.20;;;;;;;9.09;59.48;99057.38;5091976;28;20028;-53
2021/11/13 08:44:52;;;;;;;31.25;21.73;;;;;;;9.16;59.19;99060.13;5091857;28;20077;-53
2021/11/13 08:47:18;;;;;;;29.52;24.38;;;;;;;9.14;58.71;99059.50;5090618;28;20482;-53
2021/11/13 08:49:47;;;;;;;18.95;15.98;;;;;;;8.92;58.92;99064.63;5090588;28;20531;-53
2021/11/13 08:52:16;;;;;;;16.88;10.88;;;;;;;8.86;59.30;99065.34;5091860;28;20162;-53
2021/11/13 08:54:43;;;;;;;19.05;12.77;;;;;;;8.69;59.21;99064.72;5091886;28;20397;-52
2021/11/13 08:57:09;;;;;;;14.65;11.32;;;;;;;8.50;59.36;99071.25;5091819;28;20051;-53
2021/11/13 08:59:35;;;;;;;13.07;10.93;;;;;;;8.43;60.18;99072.97;5091880;28;20366;-53
2021/11/13 09:02:08;;;;;;;11.73;10.35;;;;;;;8.64;59.72;99061.00;5091815;28;20127;-53
2021/11/13 09:04:35;;;;;;;20.73;13.90;;;;;;;9.17;59.85;99056.50;5091824;28;20092;-53
2021/11/13 09:07:01;;;;;;;13.25;10.73;;;;;;;10.25;59.42;99062.69;5091762;28;20043;-53
2021/11/13 09:09:27;;;;;;;13.25;9.40;;;;;;;11.88;56.97;99054.50;5095746;28;20024;-53
2021/11/13 09:11:57;;;;;;;17.08;14.18;;;;;;;12.69;52.72;99048.25;5094508;28;20234;-53
2021/11/13 09:14:23;;;;;;;14.15;10.52;;;;;;;12.86;51.04;99046.81;5095820;28;20032;-53
2021/11/13 09:16:48;;;;;;;12.48;10.52;;;;;;;12.97;50.06;99051.44;5095768;28;20035;-53
2021/11/13 09:19:14;;;;;;;12.48;10.98;;;;;;;12.99;49.84;99046.78;5094422;28;20078;-53
2021/11/13 09:21:40;;;;;;;18.77;10.50;;;;;;;13.09;49.95;99053.44;5095907;28;20066;-53
2021/11/13 09:24:07;;;;;;;15.18;10.27;;;;;;;13.22;49.14;99052.59;5093994;28;20533;-53
2021/11/13 09:26:33;;;;;;;15.85;11.10;;;;;;;12.96;48.53;99047.19;5094229;28;20047;-53
2021/11/13 09:28:59;;;;;;;12.02;9.88;;;;;;;12.52;49.35;99051.31;5095543;28;20016;-53
2021/11/13 09:31:26;;;;;;;13.68;9.18;;;;;;;12.29;49.71;99054.34;5095487;28;20073;-54
2021/11/13 09:33:52;;;;;;;11.20;10.02;;;;;;;12.22;49.56;99064.06;5094075;28;20020;-53
2021/11/13 09:36:19;;;;;;;17.50;12.85;;;;;;;12.09;50.63;99066.69;5095369;28;20103;-53
2021/11/13 09:38:45;;;;;;;18.85;12.45;;;;;;;11.97;50.51;99058.56;5093990;28;20028;-53
2021/11/13 09:41:15;;;;;;;12.75;10.85;;;;;;;11.55;51.04;99058.66;5095260;28;20034;-53
2021/11/13 09:43:41;;;;;;;12.07;10.65;;;;;;;10.97;52.11;99063.44;5093893;28;20024;-53
2021/11/13 09:46:10;;;;;;;13.30;11.52;;;;;;;10.42;53.46;99065.06;5095143;28;20016;-53
2021/11/13 09:48:37;;;;;;;12.15;10.82;;;;;;;10.38;53.83;99064.63;5095141;28;20099;-53
2021/11/13 09:51:04;;;;;;;12.48;10.90;;;;;;;10.56;53.59;99065.00;5095084;28;20460;-53
2021/11/13 09:53:31;;;;;;;14.13;11.32;;;;;;;10.43;53.99;99062.25;5093721;28;20451;-53
2021/11/13 09:55:58;;;;;;;13.30;11.57;;;;;;;10.39;53.98;99064.44;5095036;28;20509;-53
2021/11/13 09:58:24;;;;;;;12.63;11.27;;;;;;;10.42;53.93;99068.50;5094972;28;20044;-53
2021/11/13 10:00:50;;;;;;;15.32;11.88;;;;;;;10.47;53.85;99066.13;5094933;28;20048;-53
2021/11/13 10:03:20;;;;;;;12.07;10.70;;;;;;;10.51;53.97;99053.44;5094750;28;20433;-53
2021/11/13 10:05:52;;;;;;;15.68;12.10;;;;;;;10.54;53.83;99051.25;5093499;28;20024;-52
2021/11/13 10:08:19;;;;;;;13.52;11.18;;;;;;;10.66;53.23;99037.59;5094905;28;20024;-53
2021/11/13 10:10:46;;;;;;;12.07;10.48;;;;;;;10.70;53.10;99046.69;5094674;28;20020;-53
2021/11/13 10:13:31;;;;;;;20.30;12.07;;;;;;;10.66;53.39;99038.41;5093348;28;20021;-53
2021/11/13 10:16:08;;;;;;;26.98;17.98;;;;;;;10.61;52.98;99026.88;5094630;28;20024;-53
2021/11/13 10:18:54;;;;;;;24.73;14.35;;;;;;;10.59;53.45;99022.63;5094283;28;20024;-53
2021/11/13 10:21:25;;;;;;;;;;;;;;;10.75;53.72;99020.69;5094685;28;20023;-53
2021/11/13 10:23:54;;;;;;;16.45;12.80;;;;;;;10.49;53.70;99009.03;5092936;28;19922;-52
2021/11/13 10:26:31;;;;;;;19.55;14.93;;;;;;;10.31;55.03;99009.50;5094456;28;20489;-53
2021/11/13 10:29:05;;;;;;;15.25;13.48;;;;;;;10.24;55.64;99013.03;5094421;28;20032;-53
2021/11/13 10:31:36;;;;;;;17.50;15.10;;;;;;;10.29;55.90;99005.41;5094623;28;20032;-52
2021/11/13 10:34:07;;;;;;;30.25;27.27;;;;;;;10.24;56.20;99005.16;5094307;28;20028;-52
2021/11/13 10:36:37;;;;;;;22.77;15.23;;;;;;;10.08;56.72;98987.88;5094593;28;20031;-52
2021/11/13 10:39:26;;;;;;;24.27;13.68;;;;;;;10.25;56.75;98983.19;5094500;28;20028;-52
2021/11/13 10:41:58;;;;;;;15.27;13.57;;;;;;;10.67;55.94;98974.41;5094150;28;20440;-52
2021/11/13 10:44:30;;;;;;;19.05;11.98;;;;;;;10.84;54.85;98969.63;5092710;28;20524;-52
2021/11/13 10:47:01;;;;;;;14.82;12.00;;;;;;;10.75;55.47;98960.31;5094036;28;20086;-52
2021/11/13 10:49:28;;;;;;;13.57;11.40;;;;;;;10.90;55.37;98955.72;5093964;28;20501;-52
2021/11/13 10:51:57;;;;;;;17.67;11.48;;;;;;;11.36;55.01;98959.53;5092601;28;20028;-53
2021/11/13 10:54:24;;;;;;;20.27;11.95;;;;;;;11.82;53.84;98960.63;5093884;28;20020;-54
2021/11/13 10:56:57;;;;;;;20.38;11.65;;;;;;;12.09;53.42;98956.19;5093888;28;20385;-53
2021/11/13 10:59:25;;;;;;;15.05;13.00;;;;;;;12.43;51.83;98954.34;5093852;28;20047;-54
2021/11/13 11:04:23;;;;;;;17.52;11.23;;;;;;;12.03;52.92;98942.03;5093700;28;20039;-53
2021/11/13 11:06:52;;;;;;;14.80;12.10;;;;;;;11.97;52.94;98934.94;5092307;28;20039;-53
2021/11/13 11:09:33;;;;;;;14.88;11.27;;;;;;;12.41;52.33;98933.47;5093601;28;20099;-52
2021/11/13 11:12:03;;;;;;;15.35;12.52;;;;;;;12.45;51.51;98925.97;5092265;28;20040;-52
2021/11/13 11:14:31;;;;;;;13.88;11.70;;;;;;;12.59;52.36;98925.72;5093485;28;20101;-53
2021/11/13 11:17:08;;;;;;;19.70;15.95;;;;;;;13.54;51.13;98913.75;5092293;28;20118;-53
2021/11/13 11:19:37;;;;;;;12.65;11.13;;;;;;;14.03;49.22;98901.59;5093491;28;20031;-53
2021/11/13 11:22:11;;;;;;;14.02;12.30;;;;;;;13.65;48.83;98904.34;5091712;28;20080;-53
2021/11/13 11:24:37;;;;;;;16.67;13.95;;;;;;;13.74;49.80;98910.94;5091975;28;20119;-53
2021/11/13 11:27:15;;;;;;;14.85;11.68;;;;;;;13.93;48.43;98912.63;5093219;28;20103;-53
2021/11/13 11:29:48;;;;;;;15.57;12.50;;;;;;;13.88;49.10;98888.72;5093238;28;20028;-54